Pedro R. Fernandez, Argentina
Current Conditions -  °F | °C
As of 6:00 PM on Friday 28 Nov 2014 (Local Time) from SARC Reporting Station
Clear Clear  
Wind Chill: 91°   Ceiling: Unl
Heat Index: 91°   Visibility: 6mi
Dew Point: 61°   Wind: 7mph
Humidity: 36%   Direction: 70°ENE
Pressure: 29.74"   Gusts: NA
Location:  28.75°S, 58.65°W
Report Text: SARC 282100Z 07006KT 020V130 CAVOK 33/16 Q1007
Loading
Personal Weather Stations






























Interactive Weather Map New forecast layout! Learn more

10-Day Weather Forecast

Advertisements
Track Severe Weather on mobile